createdAt,value
2022-10-25T00:03:31.591Z,-0.88
2022-10-25T00:08:36.388Z,-0.86
2022-10-25T00:13:39.774Z,-0.89
2022-10-25T00:18:43.328Z,-1.11
2022-10-25T00:23:48.399Z,-1.06
2022-10-25T00:28:54.415Z,-1.15
2022-10-25T00:33:57.891Z,-1.12
2022-10-25T00:39:02.933Z,-1.07
2022-10-25T00:44:47.826Z,-1.00
2022-10-25T00:49:56.846Z,-1.12
2022-10-25T00:55:03.687Z,-1.09
2022-10-25T01:00:08.713Z,-1.23
2022-10-25T01:05:12.510Z,-1.16
2022-10-25T01:10:17.804Z,-1.20
2022-10-25T01:15:24.416Z,-1.25
2022-10-25T01:20:58.230Z,-1.25
2022-10-25T01:26:41.369Z,-1.13
2022-10-25T01:31:50.364Z,-1.19
2022-10-25T01:37:01.421Z,-1.12
2022-10-25T01:42:08.757Z,-1.21
2022-10-25T01:47:18.774Z,-1.21
2022-10-25T01:52:24.026Z,-1.44
2022-10-25T01:57:49.672Z,-1.24
2022-10-25T02:03:13.854Z,-1.27
2022-10-25T02:08:24.311Z,-1.38
2022-10-25T02:13:33.355Z,-1.37
2022-10-25T02:19:02.081Z,-1.45
2022-10-25T02:24:10.796Z,-1.55
2022-10-25T02:29:16.399Z,-1.63
2022-10-25T02:34:21.497Z,-1.72
2022-10-25T02:39:30.500Z,-1.70
2022-10-25T02:44:35.178Z,-1.77
2022-10-25T02:49:40.278Z,-1.78
2022-10-25T02:54:43.803Z,-1.84
2022-10-25T02:59:47.184Z,-1.88
2022-10-25T03:04:51.926Z,-1.92
2022-10-25T03:09:55.010Z,-2.01
2022-10-25T03:14:58.811Z,-2.03
2022-10-25T03:20:03.547Z,-2.09
2022-10-25T03:30:17.204Z,-2.02
2022-10-25T03:35:22.173Z,-2.00
2022-10-25T03:40:25.695Z,-2.18
2022-10-25T03:45:29.165Z,-2.18
2022-10-25T03:50:33.974Z,-2.21
2022-10-25T03:55:37.319Z,-2.19
2022-10-25T04:00:40.859Z,-2.33
2022-10-25T04:05:45.875Z,-2.27
2022-10-25T04:10:49.263Z,-2.27
2022-10-25T04:15:52.757Z,-2.19
2022-10-25T04:20:59.705Z,-2.14
2022-10-25T04:26:03.088Z,-2.14
2022-10-25T04:31:06.711Z,-1.97
2022-10-25T04:36:11.509Z,-1.82
2022-10-25T04:41:15.216Z,-1.73
2022-10-25T04:46:19.069Z,-1.58
2022-10-25T04:51:23.935Z,-1.47
2022-10-25T04:56:27.043Z,-1.35
2022-10-25T05:01:30.600Z,-1.37
2022-10-25T05:06:35.486Z,-1.17
2022-10-25T05:11:38.712Z,-1.02
2022-10-25T05:16:42.266Z,-1.13
2022-10-25T05:21:47.949Z,-0.91
2022-10-25T05:26:51.292Z,-0.94
2022-10-25T05:31:54.699Z,-0.70
2022-10-25T05:36:59.732Z,1.12
2022-10-25T05:42:06.457Z,2.53
2022-10-25T05:47:10.192Z,4.33
2022-10-25T05:52:15.662Z,8.02
2022-10-25T05:57:18.883Z,9.92
2022-10-25T06:02:22.340Z,12.97
2022-10-25T06:07:27.566Z,16.60
2022-10-25T06:12:30.915Z,19.50
2022-10-25T06:17:34.353Z,22.15
2022-10-25T06:22:39.228Z,21.62
2022-10-25T06:27:44.221Z,18.92
2022-10-25T06:32:47.909Z,22.42
2022-10-25T06:37:52.861Z,24.05
2022-10-25T06:42:57.055Z,25.20
2022-10-25T06:48:00.601Z,27.08
2022-10-25T06:53:05.522Z,28.70
2022-10-25T06:58:08.968Z,29.32
2022-10-25T07:03:12.347Z,30.47
2022-10-25T07:08:16.832Z,29.91
2022-10-25T07:13:20.256Z,30.22
2022-10-25T07:18:24.027Z,30.71
2022-10-25T07:23:29.313Z,31.59
2022-10-25T07:28:33.038Z,32.58
2022-10-25T07:33:36.717Z,31.65
2022-10-25T07:38:42.144Z,32.03
2022-10-25T07:43:45.599Z,32.02
2022-10-25T07:48:50.010Z,32.13
2022-10-25T07:53:55.769Z,31.53
2022-10-25T07:58:59.585Z,32.73
2022-10-25T08:04:03.089Z,31.33
2022-10-25T08:09:14.539Z,30.93
2022-10-25T08:14:18.616Z,30.73
2022-10-25T08:19:22.391Z,28.50
2022-10-25T08:24:27.227Z,29.57
2022-10-25T08:29:30.955Z,28.45
2022-10-25T08:34:34.852Z,25.22
2022-10-25T08:39:40.375Z,22.01
2022-10-25T08:44:48.199Z,17.66
2022-10-25T08:49:56.985Z,15.69
2022-10-25T08:55:05.823Z,13.68
2022-10-25T09:00:17.852Z,12.80
2022-10-25T09:05:35.961Z,11.46
2022-10-25T09:10:51.556Z,11.15
2022-10-25T09:16:06.147Z,10.76
2022-10-25T09:21:22.179Z,10.31
2022-10-25T09:26:43.839Z,9.75
2022-10-25T09:31:52.883Z,9.33
2022-10-25T09:37:03.466Z,8.84
2022-10-25T09:42:19.669Z,8.80
2022-10-25T09:47:32.128Z,8.54
2022-10-25T09:52:42.347Z,8.06
2022-10-25T09:57:47.963Z,7.84
2022-10-25T10:02:51.810Z,7.75
2022-10-25T10:07:56.477Z,7.28
2022-10-25T10:13:06.455Z,7.21
2022-10-25T10:18:27.497Z,7.02
2022-10-25T10:23:33.972Z,6.73
2022-10-25T10:28:39.526Z,6.44
2022-10-25T10:33:49.816Z,6.24
2022-10-25T10:38:53.944Z,6.03
2022-10-25T10:44:14.119Z,6.00
2022-10-25T10:49:18.751Z,5.90
2022-10-25T10:54:26.672Z,5.82
2022-10-25T10:59:40.620Z,5.75
2022-10-25T11:04:50.898Z,5.73
2022-10-25T11:09:54.712Z,5.67
2022-10-25T11:14:59.743Z,5.78
2022-10-25T11:20:20.719Z,5.79
2022-10-25T11:25:35.426Z,5.86
2022-10-25T11:30:46.020Z,5.97
2022-10-25T11:36:30.372Z,6.15
2022-10-25T11:41:45.228Z,6.20
2022-10-25T11:46:58.432Z,6.22
2022-10-25T11:52:20.049Z,6.08
2022-10-25T11:57:36.177Z,6.01
2022-10-25T12:02:57.034Z,6.44
2022-10-25T12:08:15.853Z,6.57
2022-10-25T12:13:23.381Z,6.58
2022-10-25T12:18:36.903Z,6.43
2022-10-25T12:23:45.131Z,6.50
2022-10-25T12:28:51.238Z,6.45
2022-10-25T12:34:01.022Z,6.54
2022-10-25T12:39:11.863Z,6.47
2022-10-25T12:44:33.198Z,6.41
2022-10-25T12:50:02.245Z,6.33
2022-10-25T12:55:37.371Z,6.46
2022-10-25T13:00:56.486Z,6.22
2022-10-25T13:06:26.907Z,6.46
2022-10-25T13:11:36.097Z,6.55
2022-10-25T13:16:39.880Z,6.22
2022-10-25T13:22:34.132Z,6.11
2022-10-25T13:28:01.959Z,5.97
2022-10-25T13:33:28.627Z,5.92
2022-10-25T13:38:39.550Z,5.65
2022-10-25T13:44:01.133Z,5.39
2022-10-25T13:49:22.193Z,5.19
2022-10-25T13:54:37.182Z,4.83
2022-10-25T14:00:02.485Z,4.79
2022-10-25T14:05:11.781Z,4.58
2022-10-25T14:10:28.639Z,4.32
2022-10-25T14:15:41.426Z,4.05
2022-10-25T14:20:47.611Z,3.78
2022-10-25T14:25:57.190Z,3.46
2022-10-25T14:31:02.529Z,3.21
2022-10-25T14:36:11.119Z,3.00
2022-10-25T14:41:16.253Z,2.82
2022-10-25T14:46:21.791Z,2.63
2022-10-25T14:51:30.016Z,2.46
2022-10-25T14:56:38.217Z,2.29
2022-10-25T15:01:42.972Z,2.07
2022-10-25T15:06:50.291Z,1.99
2022-10-25T15:12:18.432Z,1.79
2022-10-25T15:17:30.353Z,1.67
2022-10-25T15:22:42.657Z,1.58
2022-10-25T15:27:47.528Z,1.49
2022-10-25T15:32:50.701Z,1.51
2022-10-25T15:37:54.819Z,1.51
2022-10-25T15:42:59.808Z,1.55
2022-10-25T15:48:05.712Z,1.56
2022-10-25T15:53:12.791Z,1.57
2022-10-25T15:58:18.514Z,1.42
2022-10-25T16:03:24.182Z,1.56
2022-10-25T16:08:28.421Z,1.53
2022-10-25T16:13:36.690Z,1.58
2022-10-25T16:18:40.507Z,1.54
2022-10-25T16:23:44.000Z,1.49
2022-10-25T16:28:49.673Z,1.47
2022-10-25T16:33:53.108Z,1.39
2022-10-25T16:38:57.536Z,1.34
2022-10-25T16:44:02.243Z,1.32
2022-10-25T16:49:06.287Z,1.22
2022-10-25T16:54:11.561Z,1.32
2022-10-25T16:59:16.836Z,1.33
2022-10-25T17:04:23.476Z,1.21
2022-10-25T17:09:27.371Z,1.32
2022-10-25T17:14:32.435Z,1.27
2022-10-25T17:19:36.167Z,1.23
2022-10-25T17:24:39.544Z,1.11
2022-10-25T17:29:44.818Z,1.14
2022-10-25T17:34:48.551Z,1.07
2022-10-25T17:39:52.378Z,1.05
2022-10-25T17:44:57.298Z,1.02
2022-10-25T17:50:01.977Z,0.94
2022-10-25T17:55:07.156Z,0.96
2022-10-25T18:00:14.553Z,0.89
2022-10-25T18:05:21.117Z,0.86
2022-10-25T18:10:25.449Z,0.93
2022-10-25T18:15:30.847Z,0.95
2022-10-25T18:20:34.668Z,1.15
2022-10-25T18:25:38.449Z,1.34
2022-10-25T18:30:45.971Z,1.43
2022-10-25T18:35:49.418Z,1.39
2022-10-25T18:40:53.525Z,1.41
2022-10-25T18:46:01.984Z,1.48
2022-10-25T18:51:06.520Z,1.45
2022-10-25T18:56:11.702Z,1.42
2022-10-25T19:01:18.749Z,1.67
2022-10-25T19:06:22.735Z,1.62
2022-10-25T19:11:26.903Z,1.57
2022-10-25T19:16:32.146Z,1.67
2022-10-25T19:21:36.380Z,1.75
2022-10-25T19:26:40.155Z,1.56
2022-10-25T19:31:45.352Z,1.74
2022-10-25T19:36:50.514Z,1.65
2022-10-25T19:41:54.363Z,1.52
2022-10-25T19:46:59.376Z,1.49
2022-10-25T19:52:02.957Z,1.31
2022-10-25T19:57:07.244Z,1.24
2022-10-25T20:02:12.590Z,1.15
2022-10-25T20:07:16.333Z,0.86
2022-10-25T20:12:20.288Z,0.75
2022-10-25T20:17:25.551Z,0.60
2022-10-25T20:22:28.977Z,0.46
2022-10-25T20:27:33.353Z,0.38
2022-10-25T20:32:40.731Z,0.34
2022-10-25T20:37:44.645Z,0.35
2022-10-25T20:42:48.177Z,0.33
2022-10-25T20:47:55.468Z,0.28
2022-10-25T20:53:15.672Z,0.22
2022-10-25T20:58:21.358Z,0.13
2022-10-25T21:03:27.270Z,0.06
2022-10-25T21:08:31.373Z,0.07
2022-10-25T21:13:37.455Z,0.10
2022-10-25T21:18:43.307Z,0.05
2022-10-25T21:23:46.770Z,0.04
2022-10-25T21:28:50.859Z,0.00
2022-10-25T21:33:59.342Z,-0.11
2022-10-25T21:39:03.289Z,-0.23
2022-10-25T21:49:12.035Z,-0.02
2022-10-25T21:54:15.477Z,-0.01
2022-10-25T21:59:18.839Z,0.10
2022-10-25T22:04:24.193Z,0.28
2022-10-25T22:09:27.879Z,0.40
2022-10-25T22:14:31.615Z,0.59
2022-10-25T22:19:37.039Z,0.81
2022-10-25T22:24:40.377Z,0.83
2022-10-25T22:29:44.095Z,0.83
2022-10-25T22:34:49.046Z,0.92
2022-10-25T22:39:52.708Z,0.91
2022-10-25T22:44:56.195Z,0.90
2022-10-25T22:50:01.327Z,0.94
2022-10-25T22:55:06.903Z,0.89
2022-10-25T23:00:11.853Z,0.96
2022-10-25T23:05:16.878Z,1.05
2022-10-25T23:10:20.501Z,1.03
2022-10-25T23:15:24.254Z,1.08
2022-10-25T23:20:29.631Z,1.09
2022-10-25T23:25:34.772Z,0.90
2022-10-25T23:30:38.666Z,0.92
2022-10-25T23:35:43.482Z,1.04
2022-10-25T23:40:47.512Z,1.05
2022-10-25T23:45:51.364Z,0.96
2022-10-25T23:56:07.096Z,0.98
